Time;durP1;ratioP1;P1;durP2;ratioP2;P2;SDS_P1;SDS_P2;PMS_P1;PMS_P2;Temp;Humidity;BMP_temperature;BMP_pressure;BME280_temperature;BME280_humidity;BME280_pressure;Samples;Min_cycle;Max_cycle;Signal;HPM_P1;HPM_P2
2021/05/29 00:02:04;;;;;;;13.27;10.10;;;;;;;15.54;62.12;99909.84;5047080;28;20074;-24
2021/05/29 00:04:30;;;;;;;10.85;8.50;;;;;;;15.44;61.94;99917.81;5046853;28;20674;-24
2021/05/29 00:06:55;;;;;;;14.45;10.20;;;;;;;15.53;62.16;99910.91;5046939;28;20036;-24
2021/05/29 00:09:21;;;;;;;10.63;8.45;;;;;;;15.37;62.49;99914.53;5046856;28;20511;-25
2021/05/29 00:11:46;;;;;;;11.35;8.77;;;;;;;15.37;61.86;99899.22;5046760;28;20060;-24
2021/05/29 00:14:12;;;;;;;10.45;8.50;;;;;;;15.23;61.88;99896.13;5046750;28;20087;-25
2021/05/29 00:16:38;;;;;;;10.85;8.23;;;;;;;15.47;61.72;99890.44;5046862;28;20064;-24
2021/05/29 00:19:03;;;;;;;12.05;8.82;;;;;;;15.54;61.85;99899.09;5046896;28;20043;-25
2021/05/29 00:21:29;;;;;;;10.35;8.38;;;;;;;15.58;61.74;99913.63;5045891;28;20037;-24
2021/05/29 00:23:55;;;;;;;10.20;8.25;;;;;;;15.41;61.75;99904.88;5046565;28;20144;-24
2021/05/29 00:26:20;;;;;;;10.95;8.00;;;;;;;15.49;62.03;99915.19;5046374;28;20032;-25
2021/05/29 00:28:46;;;;;;;12.18;8.35;;;;;;;15.57;61.24;99903.13;5046722;28;20552;-24
2021/05/29 00:31:12;;;;;;;11.55;8.65;;;;;;;15.66;61.13;99915.06;5046458;28;20095;-25
2021/05/29 00:33:38;;;;;;;9.80;7.90;;;;;;;15.62;61.69;99917.44;5046753;28;20029;-25
2021/05/29 00:36:04;;;;;;;11.80;8.48;;;;;;;15.58;61.20;99908.25;5046671;28;20036;-24
2021/05/29 00:38:30;;;;;;;10.77;8.40;;;;;;;15.69;61.60;99911.84;5044971;28;20040;-24
2021/05/29 00:40:56;;;;;;;10.38;8.02;;;;;;;15.53;61.43;99913.59;5046342;28;20569;-25
2021/05/29 00:43:21;;;;;;;9.07;8.07;;;;;;;15.51;61.75;99904.97;5046446;28;20024;-25
2021/05/29 00:45:48;;;;;;;10.20;7.45;;;;;;;15.52;61.63;99914.66;5046664;28;20086;-24
2021/05/29 00:48:14;;;;;;;9.10;7.38;;;;;;;15.48;61.55;99902.78;5046213;28;20075;-25
2021/05/29 00:50:47;;;;;;;10.15;7.35;;;;;;;15.53;61.53;99910.91;5046235;28;20041;-25
2021/05/29 00:53:14;;;;;;;9.23;7.22;;;;;;;15.54;61.50;99917.91;5047018;28;20032;-24
2021/05/29 00:55:39;;;;;;;9.50;6.93;;;;;;;15.50;61.62;99919.47;5049952;28;20041;-25
2021/05/29 00:58:05;;;;;;;9.52;7.25;;;;;;;15.46;61.75;99907.63;5050240;28;20041;-24
2021/05/29 01:00:30;;;;;;;8.10;7.13;;;;;;;15.53;61.72;99915.47;5049925;28;20036;-24
2021/05/29 01:02:56;;;;;;;10.65;6.97;;;;;;;15.68;61.40;99923.66;5049845;28;20060;-24
2021/05/29 01:05:22;;;;;;;9.32;6.88;;;;;;;15.66;61.18;99918.53;5049877;28;20083;-25
2021/05/29 01:07:48;;;;;;;9.13;7.07;;;;;;;15.75;61.04;99915.41;5049640;28;20021;-25
2021/05/29 01:10:14;;;;;;;11.73;6.32;;;;;;;15.68;60.92;99913.72;5048356;28;20112;-25
2021/05/29 01:12:39;;;;;;;11.23;7.40;;;;;;;15.58;61.41;99913.63;5048548;28;20029;-25
2021/05/29 01:15:07;;;;;;;8.65;6.88;;;;;;;15.71;61.42;99911.59;5049780;28;20424;-25
2021/05/29 01:17:33;;;;;;;7.97;6.80;;;;;;;15.72;61.29;99910.53;5049731;28;20033;-25
2021/05/29 01:19:58;;;;;;;8.55;5.80;;;;;;;15.54;61.00;99914.41;5049687;28;20416;-24
2021/05/29 01:22:51;;;;;;;9.32;6.82;;;;;;;15.82;60.81;99898.00;5049196;28;20493;-25
2021/05/29 01:25:22;;;;;;;9.93;6.07;;;;;;;15.92;60.22;99902.66;5049776;28;20041;-25
2021/05/29 01:27:54;;;;;;;8.63;6.22;;;;;;;15.57;60.96;99906.66;5049430;28;20021;-24
2021/05/29 01:30:20;;;;;;;8.43;5.80;;;;;;;15.50;61.19;99902.53;5049170;28;20052;-25
2021/05/29 01:32:45;;;;;;;12.48;6.55;;;;;;;15.54;61.33;99895.59;5049110;28;20037;-24
2021/05/29 01:35:11;;;;;;;8.98;5.70;;;;;;;15.39;60.91;99875.59;5049213;28;20036;-24
2021/05/29 01:37:38;;;;;;;9.20;6.05;;;;;;;15.50;61.38;99891.78;5049644;28;20025;-25
2021/05/29 01:40:05;;;;;;;9.02;6.22;;;;;;;15.57;61.14;99901.28;5049138;28;20056;-24
2021/05/29 01:42:31;;;;;;;6.95;5.70;;;;;;;15.37;61.22;99891.16;5047840;28;20036;-25
2021/05/29 01:44:56;;;;;;;9.70;6.63;;;;;;;15.34;61.54;99890.84;5049138;28;20033;-24
2021/05/29 01:47:22;;;;;;;8.00;5.43;;;;;;;15.62;61.25;99898.63;5047753;28;20040;-24
2021/05/29 01:49:47;;;;;;;7.93;6.05;;;;;;;15.79;60.26;99898.53;5048219;28;20044;-26
2021/05/29 01:52:13;;;;;;;8.10;5.57;;;;;;;15.74;60.18;99900.38;5048798;28;20045;-24
2021/05/29 01:54:38;;;;;;;8.32;5.68;;;;;;;15.63;60.70;99896.72;5049117;28;20041;-24
2021/05/29 01:57:04;;;;;;;7.75;5.63;;;;;;;15.52;60.14;99881.59;5048835;28;20033;-25
2021/05/29 01:59:30;;;;;;;6.95;5.28;;;;;;;15.59;60.26;99888.38;5049169;28;20029;-24
2021/05/29 02:01:55;;;;;;;8.98;5.53;;;;;;;15.67;59.96;99890.59;5049201;28;20099;-25
2021/05/29 02:04:21;;;;;;;6.97;4.88;;;;;;;15.60;60.52;99897.25;5046929;28;20041;-25
2021/05/29 02:06:46;;;;;;;7.10;5.45;;;;;;;15.57;60.11;99905.81;5048049;28;20044;-24
2021/05/29 02:09:12;;;;;;;6.57;4.90;;;;;;;15.49;59.95;99885.63;5048735;28;20413;-24
2021/05/29 02:11:38;;;;;;;8.43;5.07;;;;;;;15.69;59.53;99893.00;5048911;28;20406;-24
2021/05/29 02:14:04;;;;;;;6.80;5.03;;;;;;;15.63;59.59;99908.31;5047381;28;20465;-25
2021/05/29 02:16:29;;;;;;;7.63;6.10;;;;;;;15.64;60.12;99909.13;5048728;28;20554;-25
2021/05/29 02:18:55;;;;;;;8.20;5.45;;;;;;;15.65;59.94;99892.75;5048346;28;20036;-25
2021/05/29 02:21:20;;;;;;;6.22;5.45;;;;;;;15.58;60.44;99907.44;5047049;28;20039;-25
2021/05/29 02:23:47;;;;;;;8.75;5.72;;;;;;;15.46;60.61;99921.03;5048280;28;20079;-24
2021/05/29 02:26:14;;;;;;;8.52;5.60;;;;;;;15.31;60.95;99896.72;5048096;28;20086;-25
2021/05/29 02:28:44;;;;;;;7.88;5.15;;;;;;;15.27;60.57;99917.91;5048325;28;20046;-24
2021/05/29 02:31:10;;;;;;;9.65;5.70;;;;;;;15.26;61.15;99911.75;5048191;28;20029;-24
2021/05/29 02:33:37;;;;;;;8.30;5.88;;;;;;;15.50;60.18;99916.78;5046926;28;20029;-25
2021/05/29 02:36:04;;;;;;;7.47;5.70;;;;;;;15.43;60.41;99908.13;5048527;28;20041;-24
2021/05/29 02:38:29;;;;;;;7.85;5.63;;;;;;;15.33;60.29;99899.97;5047869;28;20550;-25
2021/05/29 02:40:56;;;;;;;7.47;5.32;;;;;;;15.32;60.66;99915.25;5048165;28;20053;-25
2021/05/29 02:43:21;;;;;;;7.43;5.80;;;;;;;15.34;60.68;99915.03;5048096;28;20111;-25
2021/05/29 02:45:47;;;;;;;7.63;5.80;;;;;;;15.28;61.39;99916.84;5047864;28;20150;-25
2021/05/29 02:48:14;;;;;;;9.48;5.35;;;;;;;15.17;60.86;99921.31;5047768;28;20061;-25
2021/05/29 02:50:40;;;;;;;6.80;5.70;;;;;;;15.18;61.34;99924.78;5030387;28;20044;-24
2021/05/29 02:53:09;;;;;;;7.75;5.05;;;;;;;15.12;60.96;99918.56;5047988;28;20029;-24
2021/05/29 02:55:34;;;;;;;8.90;5.63;;;;;;;15.09;60.92;99926.31;5046842;28;20029;-25
2021/05/29 02:58:00;;;;;;;7.85;5.13;;;;;;;15.18;60.96;99936.38;5047851;28;20035;-25
2021/05/29 03:00:31;;;;;;;7.30;5.35;;;;;;;15.09;60.98;99911.00;5047228;28;20418;-24
2021/05/29 03:02:57;;;;;;;8.88;5.40;;;;;;;15.13;60.75;99919.38;5047839;28;20035;-24
2021/05/29 03:05:23;;;;;;;7.03;5.07;;;;;;;15.27;60.21;99944.78;5047967;28;20029;-25
2021/05/29 03:07:51;;;;;;;21.08;6.53;;;;;;;15.20;60.59;99928.88;5047796;28;20032;-25
2021/05/29 03:10:18;;;;;;;7.20;6.03;;;;;;;15.55;59.97;99951.78;5047431;28;20480;-25
2021/05/29 03:12:44;;;;;;;7.03;5.40;;;;;;;15.30;60.37;99930.03;5047770;28;20060;-24
2021/05/29 03:15:14;;;;;;;9.20;5.28;;;;;;;15.45;59.75;99922.94;5047608;28;20889;-25
2021/05/29 03:17:40;;;;;;;9.20;5.20;;;;;;;15.35;60.03;99936.28;5047323;28;20054;-25
2021/05/29 03:20:07;;;;;;;8.68;5.90;;;;;;;15.47;60.31;99949.56;5047370;28;20033;-25
2021/05/29 03:22:32;;;;;;;7.38;5.25;;;;;;;15.29;60.16;99933.78;5047399;28;20047;-25
2021/05/29 03:24:58;;;;;;;8.52;5.97;;;;;;;15.65;59.83;99951.03;5047560;28;20029;-24
2021/05/29 03:27:24;;;;;;;8.07;5.40;;;;;;;15.66;59.68;99956.19;5047134;28;20029;-24
2021/05/29 03:29:50;;;;;;;7.70;5.03;;;;;;;15.49;59.67;99966.25;5047073;28;20035;-24
2021/05/29 03:32:16;;;;;;;7.05;5.53;;;;;;;15.33;60.66;99972.53;5045693;28;20029;-24
2021/05/29 03:34:41;;;;;;;7.95;5.30;;;;;;;15.51;60.03;99961.41;5047047;28;20120;-24
2021/05/29 03:37:08;;;;;;;8.65;5.70;;;;;;;15.70;59.94;99974.50;5047352;28;20029;-24
2021/05/29 03:39:34;;;;;;;8.13;5.53;;;;;;;15.57;59.91;99960.41;5047244;28;20112;-24
2021/05/29 03:41:59;;;;;;;7.10;4.93;;;;;;;15.82;59.00;99969.81;5047147;28;20108;-25
2021/05/29 03:44:25;;;;;;;8.23;5.22;;;;;;;15.73;59.20;99968.63;5046978;28;20033;-25
2021/05/29 03:46:50;;;;;;;10.60;4.72;;;;;;;15.53;59.31;99958.47;5047063;28;20039;-25
2021/05/29 03:49:16;;;;;;;5.80;4.30;;;;;;;15.33;59.88;99959.09;5045824;28;20460;-24
2021/05/29 03:51:41;;;;;;;9.57;4.88;;;;;;;15.26;60.46;99946.66;5047204;28;20567;-24
2021/05/29 03:54:07;;;;;;;7.43;4.90;;;;;;;15.44;60.44;99950.84;5046989;28;20025;-24
2021/05/29 03:56:32;;;;;;;6.25;4.10;;;;;;;15.62;59.02;99968.50;5046644;28;20055;-25
2021/05/29 03:58:58;;;;;;;5.75;4.18;;;;;;;15.62;58.96;99968.50;5047008;28;20036;-25
2021/05/29 04:01:24;;;;;;;7.82;4.70;;;;;;;15.55;59.46;99959.84;5047083;28;20055;-24
2021/05/29 04:03:49;;;;;;;6.95;4.93;;;;;;;15.67;60.03;99959.66;5047325;28;20071;-25
2021/05/29 04:06:15;;;;;;;6.38;4.90;;;;;;;15.75;59.13;99966.50;5046836;28;20041;-24
2021/05/29 04:08:41;;;;;;;8.88;5.25;;;;;;;16.03;58.06;99970.78;5046904;28;20083;-24
2021/05/29 04:11:06;;;;;;;6.05;5.10;;;;;;;15.92;58.62;99972.56;5046604;28;20044;-25
2021/05/29 04:13:32;;;;;;;5.82;4.70;;;;;;;15.60;59.18;99938.38;5046830;28;20044;-24
2021/05/29 04:15:57;;;;;;;7.20;5.03;;;;;;;15.85;58.74;99962.03;5046916;28;20032;-24
2021/05/29 04:18:23;;;;;;;7.28;4.82;;;;;;;15.84;59.42;99973.84;5046621;28;20478;-24
2021/05/29 04:20:49;;;;;;;6.85;4.80;;;;;;;15.86;58.49;99958.28;5046793;28;20555;-24
2021/05/29 04:23:14;;;;;;;6.15;4.68;;;;;;;16.18;59.34;99972.75;5046712;28;20879;-25
2021/05/29 04:25:40;;;;;;;6.32;4.13;;;;;;;16.22;58.58;99972.00;5046706;28;20040;-25
2021/05/29 04:28:05;;;;;;;6.68;4.70;;;;;;;16.26;58.06;99959.66;5046845;28;20029;-25
2021/05/29 04:30:31;;;;;;;7.47;4.38;;;;;;;16.22;58.24;99955.84;5049177;28;20037;-25
2021/05/29 04:32:57;;;;;;;8.10;4.20;;;;;;;16.01;58.87;99959.47;5050538;28;20486;-24
2021/05/29 04:35:22;;;;;;;6.25;4.63;;;;;;;15.97;59.88;99969.09;5050404;28;20390;-24
2021/05/29 04:37:48;;;;;;;6.43;4.38;;;;;;;15.86;59.73;99954.78;5050342;28;20827;-25
2021/05/29 04:40:14;;;;;;;7.75;5.05;;;;;;;15.86;59.66;99962.84;5050338;28;20033;-24
2021/05/29 04:42:40;;;;;;;6.95;4.38;;;;;;;15.82;59.88;99967.09;5050451;28;20028;-24
2021/05/29 04:45:07;;;;;;;6.65;4.63;;;;;;;15.94;59.77;99977.69;5050684;28;20056;-25
2021/05/29 04:47:32;;;;;;;7.65;4.10;;;;;;;15.89;59.22;99977.66;5050439;28;20020;-25
2021/05/29 04:49:58;;;;;;;7.10;4.40;;;;;;;15.93;58.59;99974.19;5050151;28;20417;-24
2021/05/29 04:52:23;;;;;;;6.30;4.60;;;;;;;16.05;59.36;99976.69;5048878;28;20063;-25
2021/05/29 04:54:49;;;;;;;7.10;4.78;;;;;;;15.98;59.23;99976.94;5050221;28;20091;-24
2021/05/29 04:57:15;;;;;;;6.13;4.95;;;;;;;16.13;59.23;99980.81;5049790;28;20441;-24
2021/05/29 04:59:40;;;;;;;9.68;4.72;;;;;;;16.32;58.75;99987.38;5048748;28;20071;-24
2021/05/29 05:02:06;;;;;;;6.10;4.50;;;;;;;16.43;58.47;99986.41;5050099;28;20043;-24
2021/05/29 05:04:31;;;;;;;7.07;5.20;;;;;;;16.47;58.57;99982.13;5049821;28;20032;-25
2021/05/29 05:06:57;;;;;;;5.80;4.70;;;;;;;16.63;57.37;99971.41;5048664;28;20029;-24
2021/05/29 05:09:22;;;;;;;6.40;4.40;;;;;;;17.06;56.30;99985.66;5049840;28;20451;-24
2021/05/29 05:11:49;;;;;;;5.20;4.20;;;;;;;16.62;56.83;99991.34;5048388;28;20065;-25
2021/05/29 05:14:14;;;;;;;6.05;4.68;;;;;;;16.67;57.32;100000.28;5049534;28;20064;-25
2021/05/29 05:16:40;;;;;;;5.65;4.20;;;;;;;16.76;57.31;99999.78;5049809;28;20085;-25
2021/05/29 05:19:05;;;;;;;7.00;4.10;;;;;;;16.85;56.83;100007.09;5048472;28;20500;-25
2021/05/29 05:21:31;;;;;;;5.78;4.57;;;;;;;16.75;57.32;99996.25;5048921;28;20056;-24
2021/05/29 05:23:56;;;;;;;7.55;3.80;;;;;;;16.86;57.92;100011.44;5049799;28;20102;-25
2021/05/29 05:26:22;;;;;;;6.95;4.50;;;;;;;17.18;56.73;100028.53;5049354;28;20036;-25
2021/05/29 05:28:48;;;;;;;7.07;4.78;;;;;;;17.44;56.80;100013.28;5049714;28;20021;-25
2021/05/29 05:31:14;;;;;;;5.25;4.20;;;;;;;17.62;56.29;100017.38;5048745;28;20051;-24
2021/05/29 05:33:45;;;;;;;8.13;4.78;;;;;;;17.71;56.31;100018.44;5049229;28;20543;-25
2021/05/29 05:36:11;;;;;;;6.15;4.35;;;;;;;17.53;56.69;100002.78;5049434;28;20489;-24
2021/05/29 05:38:37;;;;;;;6.60;4.53;;;;;;;17.46;55.35;99998.44;5049104;28;20037;-25
2021/05/29 05:41:03;;;;;;;5.80;4.40;;;;;;;17.34;57.17;100010.56;5049400;28;20106;-25
2021/05/29 05:43:29;;;;;;;7.05;4.53;;;;;;;17.24;56.89;100006.75;5049515;28;20056;-24
2021/05/29 05:45:54;;;;;;;7.78;4.30;;;;;;;17.39;56.23;99995.22;5049164;28;20075;-24
2021/05/29 05:48:20;;;;;;;6.25;4.28;;;;;;;16.94;56.03;99985.06;5048885;28;20065;-24
2021/05/29 05:50:53;;;;;;;7.10;4.53;;;;;;;17.12;56.71;99998.09;5049344;28;20044;-24
2021/05/29 05:53:20;;;;;;;6.80;4.63;;;;;;;17.35;57.14;99998.72;5048901;28;20059;-24
2021/05/29 05:55:46;;;;;;;7.00;4.15;;;;;;;17.49;55.99;99989.03;5048986;28;20032;-28
2021/05/29 05:58:11;;;;;;;6.35;3.65;;;;;;;17.73;55.25;99980.44;5048890;28;20151;-25
2021/05/29 06:00:37;;;;;;;6.93;4.05;;;;;;;17.46;56.01;99978.78;5047730;28;20136;-25
2021/05/29 06:03:03;;;;;;;6.47;4.63;;;;;;;17.66;55.63;99992.28;5048658;28;20028;-24
2021/05/29 06:05:28;;;;;;;9.43;5.13;;;;;;;17.85;55.64;99987.19;5048702;28;20032;-25
2021/05/29 06:07:54;;;;;;;5.35;3.90;;;;;;;17.59;54.78;99999.00;5048473;28;20547;-25
2021/05/29 06:10:19;;;;;;;9.23;4.00;;;;;;;17.61;54.44;100000.38;5048260;28;20033;-25
2021/05/29 06:12:49;;;;;;;5.43;4.10;;;;;;;17.63;54.92;99979.34;5048396;28;20059;-24
2021/05/29 06:20:31;;;;;;;4.97;3.85;;;;;;;17.71;54.84;100001.47;5048356;28;20818;-25
2021/05/29 06:22:56;;;;;;;7.47;4.22;;;;;;;17.86;55.69;100010.41;5048512;28;20184;-24
2021/05/29 06:25:22;;;;;;;6.07;4.40;;;;;;;18.14;55.45;100004.75;5048397;28;20119;-24
2021/05/29 06:27:47;;;;;;;5.50;3.95;;;;;;;18.03;55.47;100009.34;5048241;28;20057;-24
2021/05/29 06:30:13;;;;;;;5.93;4.72;;;;;;;17.98;55.00;100015.56;5048112;28;20036;-25
2021/05/29 06:32:39;;;;;;;5.95;4.10;;;;;;;17.96;54.67;99993.44;5048376;28;20033;-24
2021/05/29 06:35:06;;;;;;;7.55;4.28;;;;;;;18.04;54.16;100006.38;5046909;28;20025;-24
2021/05/29 06:37:31;;;;;;;6.90;4.00;;;;;;;18.56;53.38;100001.75;5046989;28;20382;-24
2021/05/29 06:39:57;;;;;;;7.25;4.20;;;;;;;18.40;53.50;100002.84;5047028;28;20058;-25
2021/05/29 06:42:22;;;;;;;7.38;3.60;;;;;;;18.11;53.75;99999.91;5048216;28;20032;-24
2021/05/29 06:44:48;;;;;;;4.82;3.95;;;;;;;18.12;55.09;100006.91;5048373;28;20036;-24
2021/05/29 06:47:13;;;;;;;5.88;3.85;;;;;;;18.07;54.30;99988.84;5048055;28;20147;-24
2021/05/29 06:49:40;;;;;;;6.55;3.97;;;;;;;18.43;53.90;100013.91;5047938;28;20526;-24
2021/05/29 06:52:17;;;;;;;5.22;3.45;;;;;;;18.52;53.62;99997.97;5045996;28;20049;-25
2021/05/29 07:00:06;;;;;;;6.60;3.50;;;;;;;19.35;50.30;100003.91;5047591;28;20086;-24
2021/05/29 07:02:33;;;;;;;11.82;3.90;;;;;;;19.39;50.89;100018.47;5046384;28;20064;-25
2021/05/29 07:04:58;;;;;;;5.18;3.67;;;;;;;19.73;51.04;100015.06;5047723;28;20029;-24
2021/05/29 07:07:24;;;;;;;6.28;3.97;;;;;;;20.00;50.54;100017.31;5047626;28;20416;-24
2021/05/29 07:09:49;;;;;;;7.28;3.83;;;;;;;20.29;50.48;100020.06;5047676;28;20449;-24
2021/05/29 07:12:15;;;;;;;6.28;4.00;;;;;;;20.50;49.96;100017.16;5047206;28;20060;-24
2021/05/29 07:14:41;;;;;;;5.85;3.47;;;;;;;20.48;49.21;100012.03;5046345;28;20457;-25
2021/05/29 07:17:07;;;;;;;6.55;3.80;;;;;;;20.99;50.41;100010.69;5047565;28;20646;-25
2021/05/29 07:19:33;;;;;;;5.50;3.20;;;;;;;21.28;48.60;100011.38;5047564;28;20025;-25
2021/05/29 07:21:59;;;;;;;6.25;3.47;;;;;;;21.66;47.56;100008.72;5047348;28;20063;-24
2021/05/29 07:24:24;;;;;;;5.13;3.47;;;;;;;21.50;46.46;100011.97;5047039;28;20028;-25
2021/05/29 07:26:50;;;;;;;4.97;3.08;;;;;;;21.52;47.28;100015.19;5047374;28;20124;-25
2021/05/29 07:29:16;;;;;;;5.95;3.28;;;;;;;21.52;47.08;100024.13;5047246;28;20106;-24
2021/05/29 07:31:42;;;;;;;4.07;3.15;;;;;;;21.69;46.42;100023.63;5047621;28;20041;-25
2021/05/29 07:34:08;;;;;;;5.85;3.50;;;;;;;21.84;46.31;100025.28;5047185;28;20607;-24
2021/05/29 07:36:33;;;;;;;8.73;3.33;;;;;;;21.68;46.46;100022.00;5047096;28;20061;-25
2021/05/29 07:38:59;;;;;;;7.20;3.40;;;;;;;22.05;46.23;100026.59;5046319;28;20404;-24
2021/05/29 07:41:24;;;;;;;4.60;3.03;;;;;;;21.87;45.23;100022.78;5047170;28;20064;-24
2021/05/29 07:43:50;;;;;;;4.63;3.03;;;;;;;21.75;45.51;100027.06;5045877;28;20029;-24
2021/05/29 07:46:17;;;;;;;5.82;3.30;;;;;;;21.65;46.51;100026.09;5045892;28;20497;-24
2021/05/29 07:48:43;;;;;;;6.18;3.30;;;;;;;21.57;46.35;100025.97;5047036;28;20044;-25
2021/05/29 07:51:09;;;;;;;5.43;3.00;;;;;;;21.99;45.01;100032.41;5046734;28;20053;-25
2021/05/29 07:53:39;;;;;;;4.15;3.05;;;;;;;22.48;44.85;100038.41;5046945;28;20624;-24
2021/05/29 07:56:07;;;;;;;4.97;2.80;;;;;;;22.16;44.26;100018.28;5046824;28;20044;-24
2021/05/29 07:58:32;;;;;;;;;;;;;;;21.82;44.09;100014.75;5047340;28;20096;-24
2021/05/29 08:00:58;;;;;;;5.68;3.22;;;;;;;21.83;46.37;100010.91;5047114;28;19912;-24
2021/05/29 08:03:24;;;;;;;5.18;2.90;;;;;;;22.29;45.20;100012.09;5047766;28;20101;-24
2021/05/29 08:05:51;;;;;;;4.35;2.80;;;;;;;22.53;43.99;100002.97;5051146;28;20025;-24
2021/05/29 08:08:20;;;;;;;4.87;3.10;;;;;;;22.84;44.93;100025.78;5050657;28;20079;-24
2021/05/29 08:10:48;;;;;;;6.70;2.80;;;;;;;23.10;42.85;100022.56;5050811;28;20033;-24
2021/05/29 08:13:14;;;;;;;7.30;2.90;;;;;;;23.04;42.08;100024.56;5049894;28;20028;-24
2021/05/29 08:15:40;;;;;;;4.50;3.08;;;;;;;22.97;42.97;100013.28;5051183;28;20033;-24
2021/05/29 08:18:06;;;;;;;6.60;3.17;;;;;;;22.96;43.86;100017.09;5050704;28;20032;-27
2021/05/29 08:20:32;;;;;;;4.85;3.13;;;;;;;22.38;45.00;100018.47;5050419;28;20482;-24
2021/05/29 08:22:57;;;;;;;3.95;2.80;;;;;;;22.78;43.41;100015.28;5050846;28;20036;-24
2021/05/29 08:25:23;;;;;;;5.13;2.85;;;;;;;22.97;43.09;100009.75;5049370;28;20040;-24
2021/05/29 08:27:48;;;;;;;4.95;2.90;;;;;;;23.21;43.62;100007.66;5050619;28;20064;-24
2021/05/29 08:30:14;;;;;;;4.88;2.70;;;;;;;23.46;40.37;100016.38;5050512;28;20029;-24
2021/05/29 08:32:40;;;;;;;4.70;2.90;;;;;;;23.45;42.29;100001.13;5050903;28;20021;-24
2021/05/29 08:35:06;;;;;;;3.80;2.30;;;;;;;23.69;40.70;100006.31;5050219;28;20117;-24
2021/05/29 08:37:32;;;;;;;3.80;2.70;;;;;;;23.78;41.14;100000.94;5050580;28;20037;-24
2021/05/29 08:39:57;;;;;;;4.55;2.92;;;;;;;23.73;40.66;99998.34;5049169;28;20033;-24
2021/05/29 08:42:23;;;;;;;5.20;2.63;;;;;;;23.42;42.09;100007.19;5050251;28;20110;-24
2021/05/29 08:44:48;;;;;;;5.32;2.90;;;;;;;23.94;40.93;99996.75;5050490;28;20094;-24
2021/05/29 08:47:14;;;;;;;3.63;2.58;;;;;;;24.22;40.17;99993.88;5050471;28;20032;-24
2021/05/29 08:49:40;;;;;;;3.63;2.53;;;;;;;23.69;38.24;99981.00;5050441;28;20045;-24
2021/05/29 08:52:07;;;;;;;9.00;2.83;;;;;;;24.30;40.48;99984.94;5048694;28;20053;-24
2021/05/29 08:54:33;;;;;;;;;;;;;;;24.36;40.81;99997.31;5050312;28;20036;-24
2021/05/29 08:56:58;;;;;;;4.35;2.70;;;;;;;24.60;40.82;99993.44;5050426;28;19917;-24
2021/05/29 08:59:24;;;;;;;3.42;2.58;;;;;;;24.84;40.19;99974.75;5050114;28;20033;-24
2021/05/29 09:01:52;;;;;;;5.05;2.75;;;;;;;24.26;38.43;99989.41;5050115;28;20029;-24
2021/05/29 09:04:17;;;;;;;6.65;2.90;;;;;;;24.44;40.04;99987.59;5048563;28;20186;-24
2021/05/29 09:06:45;;;;;;;3.53;2.60;;;;;;;24.50;39.71;99980.09;5049918;28;20548;-24
2021/05/29 09:09:12;;;;;;;3.90;2.60;;;;;;;24.44;38.72;99973.97;5049738;28;20029;-24
2021/05/29 09:11:49;;;;;;;6.30;2.92;;;;;;;24.47;39.38;99981.50;5049819;28;20098;-24
2021/05/29 09:14:37;;;;;;;3.78;2.40;;;;;;;24.30;41.17;99982.22;5049286;28;20110;-24
2021/05/29 09:17:10;;;;;;;4.97;2.80;;;;;;;24.93;40.29;99988.44;5050128;28;20549;-24
2021/05/29 09:20:07;;;;;;;3.65;2.42;;;;;;;25.43;39.28;99981.78;5049638;28;20509;-24
2021/05/29 09:22:38;;;;;;;2.47;2.20;;;;;;;25.35;37.47;99983.38;5049654;28;20029;-24
2021/05/29 09:25:22;;;;;;;4.95;2.58;;;;;;;25.10;37.87;99974.03;5049640;28;20041;-25
2021/05/29 09:27:55;;;;;;;4.63;2.50;;;;;;;24.98;39.92;99954.75;5049313;28;20036;-24
2021/05/29 09:30:37;;;;;;;3.28;2.40;;;;;;;25.37;37.54;99972.16;5049454;28;20021;-25
2021/05/29 09:33:12;;;;;;;5.07;2.50;;;;;;;25.54;39.54;99985.81;5049609;28;20025;-24
2021/05/29 09:35:38;;;;;;;4.78;2.38;;;;;;;25.97;37.15;99963.16;5049568;28;20033;-25
2021/05/29 09:38:04;;;;;;;3.85;2.03;;;;;;;25.99;37.83;99985.50;5049646;28;20377;-24
2021/05/29 09:40:31;;;;;;;5.38;2.28;;;;;;;26.34;35.57;99993.59;5049083;28;20063;-24
2021/05/29 09:43:01;;;;;;;3.97;2.28;;;;;;;26.22;35.82;99983.34;5049414;28;20090;-24
2021/05/29 09:45:28;;;;;;;5.88;2.20;;;;;;;26.46;34.99;99993.72;5049457;28;20053;-24
2021/05/29 09:48:09;;;;;;;4.47;2.60;;;;;;;26.40;37.33;99978.63;5049213;28;20100;-25
2021/05/29 09:50:35;;;;;;;5.60;2.50;;;;;;;25.78;35.81;99987.25;5049038;28;20032;-24
2021/05/29 09:53:01;;;;;;;4.03;2.40;;;;;;;25.47;37.42;99982.75;5049062;28;20033;-24
2021/05/29 09:55:37;;;;;;;4.75;2.17;;;;;;;25.84;37.53;99970.34;5047783;28;20028;-24
2021/05/29 09:58:02;;;;;;;5.18;2.47;;;;;;;26.16;35.06;99989.31;5049231;28;20036;-26
2021/05/29 10:00:46;;;;;;;5.75;2.33;;;;;;;26.45;35.73;99975.69;5047805;28;20120;-24
2021/05/29 10:03:12;;;;;;;3.83;2.30;;;;;;;26.12;36.97;99983.69;5048926;28;20021;-25
2021/05/29 10:05:38;;;;;;;4.88;2.60;;;;;;;26.13;37.24;99965.34;5049018;28;20045;-24
2021/05/29 10:08:04;;;;;;;2.75;2.10;;;;;;;26.30;35.61;99979.00;5049016;28;20114;-24
2021/05/29 10:10:30;;;;;;;5.10;2.40;;;;;;;27.31;33.49;99977.53;5048563;28;20033;-24
2021/05/29 10:12:57;;;;;;;2.88;2.10;;;;;;;27.45;33.68;99975.34;5048798;28;20114;-24
2021/05/29 10:15:23;;;;;;;4.65;2.35;;;;;;;27.39;34.27;99969.25;5048943;28;20086;-24
2021/05/29 10:17:48;;;;;;;2.92;2.05;;;;;;;27.22;32.47;99964.69;5048618;28;20029;-24
2021/05/29 10:20:16;;;;;;;4.95;2.20;;;;;;;27.76;33.05;99977.63;5048177;28;20052;-24
2021/05/29 10:22:43;;;;;;;3.65;2.05;;;;;;;27.64;32.71;99970.19;5048693;28;20028;-24
2021/05/29 10:25:12;;;;;;;4.60;2.17;;;;;;;28.20;31.89;99974.50;5047063;28;20485;-24
2021/05/29 10:27:38;;;;;;;3.45;2.10;;;;;;;28.50;32.19;99972.38;5047585;28;20115;-24
2021/05/29 10:30:04;;;;;;;2.88;1.75;;;;;;;27.80;31.49;99958.59;5047314;28;20162;-24
2021/05/29 10:32:29;;;;;;;3.88;2.00;;;;;;;27.35;32.30;99965.59;5046607;28;20024;-24
2021/05/29 10:34:55;;;;;;;2.65;1.92;;;;;;;27.86;32.55;99965.47;5047012;28;20120;-24
2021/05/29 10:37:29;;;;;;;3.45;2.30;;;;;;;27.49;33.83;99970.78;5048317;28;20041;-24
2021/05/29 10:40:14;;;;;;;3.30;1.92;;;;;;;27.48;31.57;99971.13;5048318;28;20033;-24
2021/05/29 10:42:39;;;;;;;3.13;2.10;;;;;;;27.26;32.62;99951.19;5047085;28;20485;-24
2021/05/29 10:45:19;;;;;;;4.35;1.90;;;;;;;27.99;32.12;99967.16;5047830;28;20140;-24
2021/05/29 10:48:14;;;;;;;4.93;2.03;;;;;;;28.25;30.02;99960.56;5048109;28;20104;-25
2021/05/29 10:50:59;;;;;;;3.22;1.80;;;;;;;28.62;29.90;99963.34;5047544;28;20049;-24
2021/05/29 10:53:37;;;;;;;2.30;1.60;;;;;;;28.28;28.52;99959.06;5047797;28;20029;-24
2021/05/29 10:56:20;;;;;;;4.50;2.00;;;;;;;28.36;29.60;99961.72;5048163;28;20389;-24
2021/05/29 10:59:11;;;;;;;3.05;2.00;;;;;;;27.01;29.93;99972.88;5047769;28;20037;-24
2021/05/29 11:04:25;;;;;;;2.22;1.50;;;;;;;27.69;28.56;99954.69;5047989;28;20035;-24
2021/05/29 11:06:52;;;;;;;4.45;2.10;;;;;;;28.16;31.73;99944.22;5047503;28;20040;-24
2021/05/29 11:09:38;;;;;;;2.47;1.70;;;;;;;28.20;31.42;99952.56;5047870;28;20091;-24
2021/05/29 11:12:08;;;;;;;2.58;2.00;;;;;;;29.09;30.11;99940.88;5047302;28;20120;-24
2021/05/29 11:14:53;;;;;;;5.13;1.80;;;;;;;29.81;29.90;99945.72;5047451;28;20033;-24
2021/05/29 11:17:22;;;;;;;2.13;1.55;;;;;;;29.82;26.30;99936.31;5047749;28;20119;-24
2021/05/29 11:20:03;;;;;;;2.92;1.83;;;;;;;29.93;28.42;99942.91;5047572;28;20037;-24
2021/05/29 11:22:40;;;;;;;3.28;1.65;;;;;;;29.87;29.61;99932.53;5046870;28;20487;-24
2021/05/29 11:25:06;;;;;;;;;;;;;;;30.01;27.90;99932.88;5048066;28;20163;-25
2021/05/29 11:27:34;;;;;;;1.75;1.55;;;;;;;29.29;27.05;99916.38;5047674;28;20031;-24
2021/05/29 11:30:02;;;;;;;;;;;;;;;28.97;29.93;99935.41;5048096;28;20951;-24
2021/05/29 11:32:48;;;;;;;3.45;1.80;;;;;;;28.30;29.55;99913.72;5047166;28;19915;-25
2021/05/29 11:35:27;;;;;;;3.78;1.55;;;;;;;28.65;32.17;99911.34;5046621;28;20090;-24
2021/05/29 11:38:05;;;;;;;3.50;2.03;;;;;;;28.51;29.61;99919.13;5047068;28;20037;-24
2021/05/29 11:40:57;;;;;;;3.80;1.80;;;;;;;29.20;28.67;99922.81;5047211;28;20029;-24
2021/05/29 11:43:39;;;;;;;6.25;1.92;;;;;;;29.62;28.25;99911.41;5045949;28;20029;-24
2021/05/29 11:46:10;;;;;;;2.58;1.95;;;;;;;29.93;29.80;99926.41;5047650;28;20146;-24
2021/05/29 11:48:46;;;;;;;3.25;1.75;;;;;;;29.77;29.06;99929.16;5047186;28;20086;-24